Time;durP1;ratioP1;P1;durP2;ratioP2;P2;SDS_P1;SDS_P2;PMS_P1;PMS_P2;Temp;Humidity;BMP_temperature;BMP_pressure;BME280_temperature;BME280_humidity;BME280_pressure;Samples;Min_cycle;Max_cycle;Signal;HPM_P1;HPM_P2
2021/12/01 00:00:36;;;;;;;0.50;0.10;;;7.10;1.00;;;;;;5015865;28;20498;-70
2021/12/01 00:03:04;;;;;;;0.50;0.10;;;7.10;1.00;;;;;;5015948;28;20480;-71
2021/12/01 00:05:34;;;;;;;0.50;0.10;;;7.10;1.00;;;;;;5015396;28;20968;-71
2021/12/01 00:08:03;;;;;;;1.03;0.50;;;7.10;1.00;;;;;;4996436;28;20869;-71
2021/12/01 00:10:34;;;;;;;0.50;0.10;;;7.10;1.00;;;;;;4995259;28;20486;-71
2021/12/01 00:13:02;;;;;;;1.53;1.20;;;7.00;1.00;;;;;;4995732;28;20497;-70
2021/12/01 00:15:30;;;;;;;0.50;0.20;;;;;;;;;;4996165;28;20447;-72
2021/12/01 00:17:59;;;;;;;0.50;0.10;;;7.00;1.00;;;;;;4997219;28;20988;-72
2021/12/01 00:20:28;;;;;;;0.50;0.20;;;7.10;1.00;;;;;;5001452;28;20465;-70
2021/12/01 00:22:56;;;;;;;0.50;0.20;;;7.10;1.00;;;;;;5017573;28;20447;-70
2021/12/01 00:25:25;;;;;;;0.50;0.17;;;7.10;1.00;;;;;;5015665;28;20453;-69
2021/12/01 00:27:55;;;;;;;0.50;0.10;;;7.20;1.00;;;;;;5019820;28;20447;-71
2021/12/01 00:30:24;;;;;;;0.60;0.30;;;7.20;1.00;;;;;;5024927;28;20495;-71
2021/12/01 00:32:54;;;;;;;0.50;0.10;;;7.20;1.00;;;;;;5024424;28;20456;-71
2021/12/01 00:35:23;;;;;;;0.50;0.10;;;7.20;1.00;;;;;;5009297;28;20458;-70
2021/12/01 00:37:51;;;;;;;0.50;0.10;;;7.20;1.00;;;;;;4999885;28;20448;-72
2021/12/01 00:40:19;;;;;;;0.50;0.10;;;7.20;1.00;;;;;;4995079;28;20461;-72
2021/12/01 00:42:47;;;;;;;0.70;0.40;;;7.30;1.00;;;;;;4994364;28;20456;-72
2021/12/01 00:45:18;;;;;;;0.50;0.10;;;7.20;1.00;;;;;;4994125;28;20471;-70
2021/12/01 00:47:49;;;;;;;0.50;0.10;;;7.20;1.00;;;;;;4993917;28;20450;-70
2021/12/01 00:50:19;;;;;;;0.60;0.40;;;7.20;1.00;;;;;;5011558;28;20485;-70
2021/12/01 00:52:48;;;;;;;0.50;0.10;;;7.20;1.00;;;;;;5013533;28;20446;-68
2021/12/01 00:55:17;;;;;;;0.50;0.10;;;7.20;1.00;;;;;;5013253;28;20460;-70
2021/12/01 00:57:44;;;;;;;0.50;0.10;;;7.20;1.00;;;;;;5013400;28;20456;-71
2021/12/01 01:00:15;;;;;;;0.50;0.10;;;7.10;1.00;;;;;;5013112;28;20957;-71
2021/12/01 01:02:42;;;;;;;0.53;0.27;;;7.10;1.00;;;;;;5007971;28;20461;-70
2021/12/01 01:05:11;;;;;;;0.50;0.10;;;7.00;1.00;;;;;;5004584;28;20469;-69
2021/12/01 01:07:39;;;;;;;0.50;0.10;;;7.00;1.00;;;;;;4994029;28;20447;-69
2021/12/01 01:10:29;;;;;;;0.50;0.20;;;7.00;1.00;;;;;;4993024;28;20820;-70
2021/12/01 01:18:36;;;;;;;0.50;0.20;;;6.90;1.00;;;;;;4994636;28;20760;-72
2021/12/01 01:21:05;;;;;;;0.50;0.10;;;7.00;1.00;;;;;;4994062;28;20472;-70
2021/12/01 01:23:34;;;;;;;0.50;0.20;;;7.00;1.00;;;;;;4998201;28;20444;-71
2021/12/01 01:26:06;;;;;;;0.50;0.13;;;7.00;1.00;;;;;;4997878;28;21000;-69
2021/12/01 01:28:34;;;;;;;0.50;0.10;;;7.00;1.00;;;;;;4993843;28;20523;-68
2021/12/01 01:31:04;;;;;;;0.50;0.20;;;7.00;1.00;;;;;;4992945;28;20490;-71
2021/12/01 01:33:32;;;;;;;0.50;0.10;;;6.90;1.00;;;;;;5001211;28;20489;-71
2021/12/01 01:36:00;;;;;;;0.50;0.10;;;7.00;1.00;;;;;;5017156;28;20476;-71
2021/12/01 01:38:29;;;;;;;0.50;0.20;;;7.00;1.00;;;;;;5022169;28;20457;-69
2021/12/01 01:40:56;;;;;;;0.50;0.10;;;7.00;1.00;;;;;;4997084;28;20989;-70
2021/12/01 01:43:26;;;;;;;0.50;0.10;;;6.90;1.00;;;;;;4993685;28;20462;-71
2021/12/01 01:45:55;;;;;;;0.70;0.20;;;6.90;1.00;;;;;;4993885;28;20459;-71
2021/12/01 01:48:29;;;;;;;0.50;0.10;;;6.90;1.00;;;;;;4997563;28;20821;-71
2021/12/01 01:50:58;;;;;;;0.50;0.10;;;7.00;1.00;;;;;;4993849;28;20530;-72
2021/12/01 01:53:27;;;;;;;0.50;0.10;;;6.90;1.00;;;;;;4995183;28;20453;-71
2021/12/01 01:55:58;;;;;;;0.50;0.10;;;6.90;1.00;;;;;;5012131;28;21063;-71
2021/12/01 01:58:28;;;;;;;0.50;0.10;;;6.90;1.00;;;;;;5012859;28;20893;-70
2021/12/01 02:01:06;;;;;;;0.50;0.17;;;7.00;1.00;;;;;;5012183;28;20470;-69
2021/12/01 02:03:38;;;;;;;0.50;0.30;;;6.90;1.00;;;;;;5012434;28;20452;-71
2021/12/01 02:06:06;;;;;;;0.50;0.10;;;7.00;1.00;;;;;;5012433;28;20803;-71
2021/12/01 02:08:37;;;;;;;0.50;0.10;;;6.90;1.00;;;;;;5011793;28;20451;-69
2021/12/01 02:11:07;;;;;;;0.50;0.20;;;6.90;1.00;;;;;;5012359;28;20839;-71
2021/12/01 02:13:36;;;;;;;0.50;0.10;;;6.90;1.00;;;;;;5012068;28;20542;-70
2021/12/01 02:16:04;;;;;;;0.50;0.10;;;6.90;1.00;;;;;;5012377;28;20825;-71
2021/12/01 02:18:36;;;;;;;0.50;0.10;;;6.80;1.00;;;;;;5012870;28;20447;-71
2021/12/01 02:21:09;;;;;;;0.50;0.10;;;6.80;1.00;;;;;;5012197;28;20471;-72
2021/12/01 02:23:39;;;;;;;0.87;0.37;;;6.80;1.00;;;;;;4993170;28;20454;-71
2021/12/01 02:26:08;;;;;;;0.50;0.10;;;6.80;1.00;;;;;;4992913;28;20485;-70
2021/12/01 02:28:37;;;;;;;0.50;0.10;;;6.70;1.00;;;;;;5017964;28;20453;-71
2021/12/01 02:31:05;;;;;;;0.50;0.10;;;6.70;1.00;;;;;;5031394;28;20894;-71
2021/12/01 02:33:33;;;;;;;0.50;0.10;;;6.80;1.00;;;;;;5035118;28;20477;-70
2021/12/01 02:36:02;;;;;;;0.50;0.10;;;6.80;1.00;;;;;;5026000;28;20485;-72
2021/12/01 02:38:31;;;;;;;0.50;0.10;;;6.80;1.00;;;;;;5012080;28;20958;-69
2021/12/01 02:41:00;;;;;;;0.50;0.10;;;6.80;1.00;;;;;;5011711;28;20471;-71
2021/12/01 02:43:29;;;;;;;0.60;0.50;;;6.70;1.00;;;;;;5007141;28;20505;-69
2021/12/01 02:45:57;;;;;;;0.50;0.10;;;6.70;1.00;;;;;;4993397;28;20465;-71
2021/12/01 02:48:25;;;;;;;0.50;0.10;;;6.70;1.00;;;;;;4991360;28;20914;-72
2021/12/01 02:50:53;;;;;;;0.87;0.67;;;6.70;1.00;;;;;;4992485;28;20855;-69
2021/12/01 02:53:23;;;;;;;0.50;0.10;;;;;;;;;;4992391;28;20487;-69
2021/12/01 02:55:56;;;;;;;0.50;0.10;;;6.70;1.00;;;;;;4994019;28;20450;-71
2021/12/01 02:58:25;;;;;;;2.67;0.60;;;6.60;1.00;;;;;;4992672;28;20447;-69
2021/12/01 03:00:55;;;;;;;0.60;0.20;;;6.60;1.00;;;;;;4992608;28;20459;-71
2021/12/01 03:03:23;;;;;;;0.50;0.20;;;6.60;1.00;;;;;;4994894;28;20465;-70
2021/12/01 03:05:52;;;;;;;0.50;0.10;;;6.60;1.00;;;;;;4994772;28;20446;-70
2021/12/01 03:08:21;;;;;;;0.60;0.20;;;6.70;1.00;;;;;;4995162;28;20447;-72
2021/12/01 03:10:52;;;;;;;0.50;0.20;;;6.80;1.00;;;;;;5023084;22;20497;-65
2021/12/01 03:13:21;;;;;;;0.50;0.20;;;6.70;1.00;;;;;;5010871;28;20490;-65
2021/12/01 03:15:49;;;;;;;0.50;0.20;;;6.70;1.00;;;;;;5010772;28;20457;-64
2021/12/01 03:18:18;;;;;;;0.50;0.10;;;6.60;1.00;;;;;;5008969;28;20954;-64
2021/12/01 03:20:47;;;;;;;0.50;0.10;;;6.70;1.00;;;;;;5010254;28;20476;-64
2021/12/01 03:23:15;;;;;;;0.50;0.10;;;6.70;1.00;;;;;;5010781;28;20828;-66
2021/12/01 03:25:45;;;;;;;0.50;0.10;;;6.70;1.00;;;;;;5011128;28;20442;-65
2021/12/01 03:28:14;;;;;;;0.57;0.20;;;6.80;1.00;;;;;;5014737;28;20450;-65
2021/12/01 03:30:42;;;;;;;0.50;0.10;;;;;;;;;;5014419;28;20465;-64
2021/12/01 03:33:12;;;;;;;0.60;0.20;;;6.90;1.00;;;;;;4986763;28;20484;-64
2021/12/01 03:35:43;;;;;;;1.23;0.43;;;6.90;1.00;;;;;;4975238;28;20598;-64
2021/12/01 03:38:11;;;;;;;0.50;0.20;;;6.80;1.00;;;;;;4975352;28;20488;-64
2021/12/01 03:40:39;;;;;;;0.50;0.10;;;6.80;1.00;;;;;;4975797;28;20482;-64
2021/12/01 03:43:07;;;;;;;0.93;0.60;;;6.80;1.00;;;;;;4976151;28;20451;-64
2021/12/01 03:45:36;;;;;;;0.50;0.17;;;6.80;1.00;;;;;;4975503;28;20953;-64
2021/12/01 03:48:05;;;;;;;0.50;0.10;;;6.80;1.00;;;;;;4994622;28;20451;-64
2021/12/01 03:50:33;;;;;;;1.33;0.67;;;6.80;1.00;;;;;;4994785;28;20444;-64
2021/12/01 03:53:01;;;;;;;0.50;0.20;;;6.80;1.00;;;;;;4994824;28;21037;-64
2021/12/01 03:55:29;;;;;;;0.50;0.30;;;6.80;1.00;;;;;;4994849;28;20941;-65
2021/12/01 03:57:56;;;;;;;0.77;0.33;;;6.80;1.00;;;;;;4994596;28;20450;-64
2021/12/01 04:00:24;;;;;;;0.50;0.27;;;6.70;1.00;;;;;;4988068;28;20446;-65
2021/12/01 04:02:54;;;;;;;0.50;0.20;;;6.70;1.00;;;;;;4975562;28;20440;-64
2021/12/01 04:05:21;;;;;;;0.50;0.23;;;6.80;1.00;;;;;;4975489;28;20543;-65
2021/12/01 04:07:49;;;;;;;0.50;0.20;;;6.80;1.00;;;;;;4975575;28;20444;-64
2021/12/01 04:10:18;;;;;;;0.60;0.40;;;6.80;1.00;;;;;;4975568;28;20552;-64
2021/12/01 04:12:47;;;;;;;0.50;0.10;;;6.70;1.00;;;;;;4975017;28;20511;-66
2021/12/01 04:15:15;;;;;;;0.50;0.10;;;6.00;1.00;;;;;;4975354;28;20463;-64
2021/12/01 04:17:44;;;;;;;0.50;0.10;;;6.70;1.00;;;;;;4987259;28;20463;-64
2021/12/01 04:20:16;;;;;;;0.50;0.20;;;6.80;1.00;;;;;;4990891;28;20460;-65
2021/12/01 04:22:45;;;;;;;0.50;0.10;;;6.70;1.00;;;;;;4993491;28;20993;-65
2021/12/01 04:25:13;;;;;;;0.50;0.10;;;6.70;1.00;;;;;;4993911;28;20463;-65
2021/12/01 04:27:41;;;;;;;0.50;0.10;;;6.70;1.00;;;;;;4993820;28;20922;-64
2021/12/01 04:30:12;;;;;;;0.50;0.10;;;6.70;1.00;;;;;;4993325;28;20458;-64
2021/12/01 04:32:40;;;;;;;0.50;0.20;;;6.80;1.00;;;;;;4993765;28;20490;-65
2021/12/01 04:35:09;;;;;;;0.50;0.10;;;6.70;1.00;;;;;;4992993;28;21041;-64
2021/12/01 04:37:39;;;;;;;0.50;0.10;;;6.70;1.00;;;;;;4993809;28;20474;-64
2021/12/01 04:40:08;;;;;;;0.50;0.10;;;6.80;1.00;;;;;;4993439;28;20451;-64
2021/12/01 04:42:36;;;;;;;0.50;0.10;;;6.80;1.00;;;;;;4993487;28;20575;-64
2021/12/01 04:45:07;;;;;;;1.63;1.07;;;6.80;1.00;;;;;;4994725;28;20471;-64
2021/12/01 04:47:38;;;;;;;1.47;0.40;;;6.90;1.00;;;;;;4994230;28;20562;-64
2021/12/01 04:50:07;;;;;;;0.50;0.10;;;6.80;1.00;;;;;;4994566;28;20458;-64
2021/12/01 04:52:35;;;;;;;0.50;0.23;;;6.80;1.00;;;;;;4993211;28;20484;-65
2021/12/01 04:55:05;;;;;;;0.50;0.10;;;6.80;1.00;;;;;;4993665;28;20519;-65
2021/12/01 04:57:33;;;;;;;0.50;0.10;;;6.90;1.00;;;;;;4979379;28;20452;-65
2021/12/01 05:00:01;;;;;;;0.50;0.10;;;7.00;1.00;;;;;;4973635;28;20962;-65
2021/12/01 05:02:29;;;;;;;0.60;0.23;;;6.90;1.00;;;;;;4973765;28;20467;-65
2021/12/01 05:04:57;;;;;;;0.50;0.10;;;7.00;1.00;;;;;;4979711;28;20453;-64
2021/12/01 05:07:25;;;;;;;0.50;0.10;;;7.00;1.00;;;;;;4993158;28;20808;-64
2021/12/01 05:09:54;;;;;;;0.50;0.10;;;7.00;1.00;;;;;;4992825;28;20967;-64
2021/12/01 05:12:23;;;;;;;0.50;0.10;;;7.00;1.00;;;;;;4992889;28;20480;-66
2021/12/01 05:14:51;;;;;;;0.50;0.10;;;7.00;1.00;;;;;;4993094;28;20464;-64
2021/12/01 05:17:20;;;;;;;0.50;0.10;;;7.00;1.00;;;;;;4993578;28;20448;-64
2021/12/01 05:19:48;;;;;;;1.00;0.70;;;7.10;1.00;;;;;;4981189;28;20449;-65
2021/12/01 05:22:16;;;;;;;0.50;0.10;;;7.10;1.00;;;;;;4973872;28;20920;-65
2021/12/01 05:24:44;;;;;;;0.50;0.10;;;7.10;1.00;;;;;;4973087;28;20448;-64
2021/12/01 05:27:11;;;;;;;0.50;0.10;;;7.10;1.00;;;;;;4973580;28;20456;-64
2021/12/01 05:29:41;;;;;;;0.60;0.53;;;7.10;1.00;;;;;;4973170;28;20449;-64
2021/12/01 05:32:09;;;;;;;0.50;0.10;;;7.10;1.00;;;;;;4993810;28;20561;-65
2021/12/01 05:34:37;;;;;;;0.50;0.30;;;7.10;1.00;;;;;;4993522;28;21047;-65
2021/12/01 05:37:05;;;;;;;0.60;0.23;;;7.10;1.00;;;;;;5002844;28;20454;-65
2021/12/01 05:39:33;;;;;;;0.50;0.20;;;7.10;1.00;;;;;;5003722;28;20446;-65
2021/12/01 05:42:01;;;;;;;0.50;0.23;;;7.00;1.00;;;;;;5012388;28;20974;-65
2021/12/01 05:44:30;;;;;;;0.50;0.30;;;7.00;1.00;;;;;;5012787;28;20574;-65
2021/12/01 05:46:59;;;;;;;0.50;0.10;;;7.00;1.00;;;;;;5006510;28;20526;-64
2021/12/01 05:49:27;;;;;;;0.50;0.10;;;7.00;1.00;;;;;;4991356;28;20463;-65
2021/12/01 05:51:57;;;;;;;1.17;0.60;;;7.00;1.00;;;;;;4992075;28;20893;-65
2021/12/01 05:54:26;;;;;;;0.50;0.10;;;7.00;1.00;;;;;;4978204;28;20486;-65
2021/12/01 05:56:53;;;;;;;0.50;0.20;;;7.00;1.00;;;;;;4988863;28;20534;-65
2021/12/01 05:59:21;;;;;;;0.50;0.10;;;7.00;1.00;;;;;;4992126;28;20843;-64
2021/12/01 06:01:49;;;;;;;0.50;0.20;;;7.10;1.00;;;;;;4991234;28;20968;-65
2021/12/01 06:04:18;;;;;;;0.80;0.60;;;7.10;1.00;;;;;;4992017;28;20442;-64
2021/12/01 06:06:46;;;;;;;0.50;0.10;;;7.10;1.00;;;;;;4991490;28;20457;-64
2021/12/01 06:09:14;;;;;;;0.70;0.40;;;7.10;1.00;;;;;;4991720;28;20447;-64
2021/12/01 06:11:42;;;;;;;0.73;0.50;;;;;;;;;;4991696;28;20482;-65
2021/12/01 06:14:12;;;;;;;0.60;0.40;;;7.10;1.00;;;;;;4991304;28;20508;-64
2021/12/01 06:16:40;;;;;;;0.60;0.30;;;7.00;1.00;;;;;;4974679;28;20823;-64
2021/12/01 06:19:08;;;;;;;0.50;0.20;;;7.00;1.00;;;;;;4972244;28;20762;-66
2021/12/01 06:21:38;;;;;;;0.50;0.20;;;7.00;1.00;;;;;;4982949;28;20956;-66
2021/12/01 06:24:06;;;;;;;0.50;0.10;;;7.00;1.00;;;;;;4995459;28;20469;-65
2021/12/01 06:26:33;;;;;;;0.50;0.10;;;7.00;1.00;;;;;;4991074;28;20464;-64
2021/12/01 06:29:01;;;;;;;0.83;0.67;;;7.10;1.00;;;;;;4995379;28;20463;-65
2021/12/01 06:31:29;;;;;;;0.90;0.60;;;7.10;1.00;;;;;;4998187;28;20583;-66
2021/12/01 06:33:58;;;;;;;0.60;0.40;;;7.10;1.00;;;;;;4993290;28;20488;-64
2021/12/01 06:36:26;;;;;;;0.90;0.50;;;7.20;1.00;;;;;;5002703;28;20436;-65
2021/12/01 06:38:55;;;;;;;0.50;0.20;;;7.20;1.00;;;;;;5010660;28;20450;-64
2021/12/01 06:41:23;;;;;;;0.50;0.10;;;7.10;1.00;;;;;;5001342;28;20496;-64
2021/12/01 06:43:51;;;;;;;0.50;0.10;;;7.10;1.00;;;;;;4999461;28;20454;-66
2021/12/01 06:46:19;;;;;;;0.53;0.20;;;8.90;1.00;;;;;;4993387;28;20503;-64
2021/12/01 06:48:47;;;;;;;5.53;1.47;;;7.20;1.00;;;;;;4996025;28;20534;-65
2021/12/01 06:51:14;;;;;;;0.50;0.10;;;7.20;1.00;;;;;;4998387;28;20470;-66
2021/12/01 06:53:42;;;;;;;0.50;0.10;;;7.20;1.00;;;;;;4991091;28;20479;-64
2021/12/01 06:56:11;;;;;;;1.03;0.53;;;7.20;1.00;;;;;;4990202;28;20945;-65
2021/12/01 06:58:39;;;;;;;0.60;0.40;;;7.20;1.00;;;;;;4991786;28;20450;-66
2021/12/01 07:01:07;;;;;;;0.50;0.30;;;7.30;1.00;;;;;;4994344;28;20461;-66
2021/12/01 07:03:41;;;;;;;1.17;1.07;;;7.30;1.00;;;;;;4995224;28;20443;-66
2021/12/01 07:06:09;;;;;;;0.53;0.27;;;7.30;1.00;;;;;;4995644;28;20463;-65
2021/12/01 07:08:38;;;;;;;1.43;1.33;;;7.20;1.00;;;;;;4995143;28;20454;-65
2021/12/01 07:11:06;;;;;;;1.47;0.60;;;7.20;1.00;;;;;;4994020;28;20474;-66
2021/12/01 07:13:36;;;;;;;1.63;0.87;;;7.20;1.00;;;;;;4993177;28;20451;-65
2021/12/01 07:16:04;;;;;;;0.60;0.50;;;7.30;1.00;;;;;;4994906;28;20455;-64
2021/12/01 07:18:32;;;;;;;0.50;0.10;;;7.30;1.00;;;;;;4995017;28;20459;-64
2021/12/01 07:21:00;;;;;;;0.50;0.23;;;7.30;1.00;;;;;;4994863;28;20494;-64
2021/12/01 07:23:28;;;;;;;0.60;0.30;;;7.30;1.00;;;;;;4987743;28;20464;-65
2021/12/01 07:26:00;;;;;;;0.50;0.10;;;7.20;1.00;;;;;;4994723;28;20510;-65
2021/12/01 07:28:28;;;;;;;0.97;0.93;;;7.30;1.00;;;;;;4994657;28;20918;-65
2021/12/01 07:30:58;;;;;;;0.60;0.30;;;7.40;1.00;;;;;;4976417;28;20475;-64
2021/12/01 07:33:29;;;;;;;5.50;2.33;;;7.30;1.00;;;;;;4975269;28;20482;-66
2021/12/01 07:35:57;;;;;;;0.57;0.20;;;7.30;1.00;;;;;;4975393;28;20480;-65
2021/12/01 07:38:25;;;;;;;3.47;1.60;;;7.30;1.00;;;;;;4976030;28;20458;-65
2021/12/01 07:40:53;;;;;;;0.80;0.30;;;7.30;1.00;;;;;;4976245;28;20468;-65
2021/12/01 07:43:21;;;;;;;0.60;0.30;;;7.30;1.00;;;;;;4976030;28;20463;-65
2021/12/01 07:45:49;;;;;;;0.80;0.67;;;7.30;1.00;;;;;;4976675;28;20671;-65
2021/12/01 07:48:19;;;;;;;0.50;0.20;;;7.30;1.00;;;;;;4975102;28;20892;-65
2021/12/01 07:50:46;;;;;;;0.90;0.50;;;7.40;1.00;;;;;;4975007;28;20469;-65
2021/12/01 07:53:14;;;;;;;0.50;0.17;;;7.40;1.00;;;;;;4974674;28;20457;-65
2021/12/01 07:55:42;;;;;;;1.17;0.67;;;7.40;1.00;;;;;;4974405;28;20484;-64
2021/12/01 07:58:10;;;;;;;0.50;0.10;;;7.40;1.00;;;;;;4974641;28;20819;-65
2021/12/01 08:00:38;;;;;;;0.50;0.10;;;7.50;1.00;;;;;;4981295;28;20858;-65
2021/12/01 08:03:06;;;;;;;0.50;0.10;;;9.80;1.00;;;;;;4994035;28;20847;-66
2021/12/01 08:05:35;;;;;;;0.83;0.60;;;7.50;1.00;;;;;;4993885;28;20442;-66
2021/12/01 08:08:05;;;;;;;0.50;0.10;;;;;;;;;;4992429;28;20547;-65
2021/12/01 08:10:33;;;;;;;0.50;0.10;;;7.60;1.00;;;;;;4994721;28;20468;-66
2021/12/01 08:13:01;;;;;;;0.50;0.10;;;7.60;1.00;;;;;;5003731;28;20520;-65
2021/12/01 08:15:48;;;;;;;0.50;0.23;;;7.70;1.00;;;;;;4995854;28;20851;-65
2021/12/01 08:18:17;;;;;;;0.50;0.10;;;7.70;1.00;;;;;;5005941;28;20444;-66
2021/12/01 08:20:47;;;;;;;0.50;0.20;;;7.70;1.00;;;;;;5013331;28;20483;-65
2021/12/01 08:23:15;;;;;;;0.50;0.10;;;7.70;1.00;;;;;;5004168;28;20535;-66
2021/12/01 08:25:43;;;;;;;0.60;0.50;;;7.70;1.00;;;;;;4993210;28;20506;-67
2021/12/01 08:28:11;;;;;;;0.50;0.10;;;7.70;1.00;;;;;;4990773;28;20449;-65
2021/12/01 08:30:39;;;;;;;0.50;0.10;;;7.70;1.00;;;;;;4990158;28;20546;-65
2021/12/01 08:33:07;;;;;;;1.03;0.63;;;7.70;1.00;;;;;;4994718;28;20448;-66
2021/12/01 08:35:35;;;;;;;0.67;0.47;;;7.70;1.00;;;;;;4994002;28;20479;-66
2021/12/01 08:38:04;;;;;;;0.50;0.10;;;7.70;1.00;;;;;;4993469;28;20494;-66
2021/12/01 08:40:33;;;;;;;0.70;0.37;;;7.60;1.00;;;;;;4993231;28;20949;-65
2021/12/01 08:43:01;;;;;;;0.50;0.10;;;7.60;1.00;;;;;;4992824;28;20451;-65
2021/12/01 08:45:29;;;;;;;0.50;0.10;;;7.60;1.00;;;;;;5001297;28;20448;-65
2021/12/01 08:47:57;;;;;;;0.50;0.10;;;7.60;1.00;;;;;;5000188;28;20451;-66
2021/12/01 08:50:25;;;;;;;0.90;0.80;;;7.50;1.00;;;;;;5000796;28;20455;-65
2021/12/01 08:52:57;;;;;;;0.50;0.10;;;7.50;1.00;;;;;;5001210;28;20499;-65
2021/12/01 08:55:27;;;;;;;0.50;0.20;;;7.60;1.00;;;;;;5005011;28;20483;-66
2021/12/01 08:58:07;;;;;;;0.60;0.20;;;7.60;1.00;;;;;;4992788;28;20452;-67
2021/12/01 09:00:41;;;;;;;0.83;0.37;;;7.60;1.00;;;;;;5002555;28;20945;-65
2021/12/01 09:03:10;;;;;;;0.50;0.10;;;7.50;1.00;;;;;;4976423;28;20635;-65
2021/12/01 09:05:38;;;;;;;1.07;0.70;;;7.60;1.00;;;;;;5000827;28;21002;-72
2021/12/01 09:08:08;;;;;;;0.50;0.10;;;7.60;1.00;;;;;;5012121;28;20466;-65
2021/12/01 09:10:38;;;;;;;0.50;0.17;;;7.50;1.00;;;;;;5005650;28;20558;-66
2021/12/01 09:13:06;;;;;;;0.50;0.10;;;7.50;1.00;;;;;;4993097;28;20906;-66
2021/12/01 09:15:35;;;;;;;0.77;0.30;;;7.50;1.00;;;;;;5003904;28;20573;-67
2021/12/01 09:18:03;;;;;;;0.60;0.20;;;7.50;1.00;;;;;;5007296;28;20447;-67
2021/12/01 09:20:32;;;;;;;0.67;0.33;;;;;;;;;;4992305;28;21010;-67
2021/12/01 09:23:00;;;;;;;0.80;0.30;;;7.50;1.00;;;;;;4992260;28;20445;-68
2021/12/01 09:25:29;;;;;;;1.37;0.37;;;7.50;1.00;;;;;;4992716;28;20760;-66
2021/12/01 09:28:14;;;;;;;0.60;0.20;;;;;;;;;;4993497;28;20807;-67
2021/12/01 09:30:42;;;;;;;0.70;0.40;;;7.40;1.00;;;;;;4992233;28;20452;-66
2021/12/01 09:33:10;;;;;;;9.33;8.33;;;7.20;1.00;;;;;;4991805;28;20829;-67
2021/12/01 09:35:38;;;;;;;0.50;0.10;;;7.40;1.00;;;;;;4992641;28;20484;-67
2021/12/01 09:38:06;;;;;;;0.50;0.10;;;7.40;1.00;;;;;;4993215;28;20525;-67
2021/12/01 09:40:35;;;;;;;0.50;0.20;;;7.30;1.00;;;;;;4992751;28;20844;-66
2021/12/01 09:43:03;;;;;;;2.60;2.40;;;7.30;1.00;;;;;;4993040;28;20459;-66
2021/12/01 09:45:32;;;;;;;0.50;0.10;;;7.40;1.00;;;;;;4999696;28;20542;-67
2021/12/01 09:48:00;;;;;;;0.50;0.10;;;7.40;1.00;;;;;;4995236;28;20455;-66
2021/12/01 09:50:28;;;;;;;0.50;0.10;;;7.50;1.00;;;;;;5013688;28;20971;-66
2021/12/01 09:52:56;;;;;;;0.50;0.10;;;7.70;1.00;;;;;;5014334;28;20431;-66
2021/12/01 09:55:24;;;;;;;0.60;0.40;;;7.60;1.00;;;;;;5003363;28;20495;-67
2021/12/01 09:58:01;;;;;;;0.70;0.60;;;7.60;1.00;;;;;;4986290;28;20444;-65
2021/12/01 10:00:29;;;;;;;0.50;0.20;;;7.60;1.00;;;;;;4973236;28;20803;-66
2021/12/01 10:02:59;;;;;;;0.50;0.17;;;7.60;1.00;;;;;;4972205;28;20433;-66
2021/12/01 10:05:50;;;;;;;0.50;0.10;;;7.70;1.00;;;;;;4973808;28;20444;-66
2021/12/01 10:08:20;;;;;;;0.50;0.10;;;7.70;1.00;;;;;;4973533;28;20448;-67
2021/12/01 10:10:49;;;;;;;0.50;0.10;;;7.70;1.00;;;;;;4973083;28;20487;-67
2021/12/01 10:13:24;;;;;;;0.70;0.50;;;7.70;1.00;;;;;;4990763;28;20467;-65
2021/12/01 10:15:54;;;;;;;0.50;0.20;;;7.70;1.00;;;;;;4991881;28;20483;-67
2021/12/01 10:18:24;;;;;;;0.50;0.10;;;7.70;1.00;;;;;;4978944;28;20460;-66
2021/12/01 10:21:04;;;;;;;0.50;0.10;;;7.80;1.00;;;;;;4972724;28;20476;-67
2021/12/01 10:23:32;;;;;;;0.50;0.10;;;7.80;1.00;;;;;;4972501;28;20869;-65
2021/12/01 10:26:11;;;;;;;0.50;0.10;;;7.80;1.00;;;;;;4972852;28;20437;-67
2021/12/01 10:28:41;;;;;;;0.50;0.20;;;7.80;1.00;;;;;;4972118;28;20774;-66
2021/12/01 10:31:11;;;;;;;0.50;0.10;;;6.30;1.00;;;;;;4972483;28;20556;-66
2021/12/01 10:33:42;;;;;;;0.80;0.30;;;7.80;1.00;;;;;;4972714;28;20586;-66
2021/12/01 10:36:11;;;;;;;1.07;0.67;;;7.80;1.00;;;;;;4984198;28;20479;-66
2021/12/01 10:38:41;;;;;;;0.60;0.30;;;7.90;1.00;;;;;;4991676;28;20457;-67
2021/12/01 10:41:11;;;;;;;0.50;0.10;;;8.00;1.00;;;;;;4992913;28;20506;-66
2021/12/01 10:43:42;;;;;;;0.90;0.20;;;8.00;1.00;;;;;;4993111;28;20888;-67
2021/12/01 10:46:13;;;;;;;6.87;1.47;;;8.00;1.00;;;;;;4991710;28;20451;-67
2021/12/01 10:48:43;;;;;;;2.93;0.53;;;8.00;1.00;;;;;;4990817;28;20456;-66
2021/12/01 10:51:31;;;;;;;0.83;0.10;;;8.00;1.00;;;;;;4993481;28;20490;-66
2021/12/01 10:54:00;;;;;;;1.30;0.10;;;8.00;1.00;;;;;;4992109;28;20460;-66
2021/12/01 10:56:28;;;;;;;4.50;0.50;;;8.00;1.00;;;;;;4997062;28;20480;-66
2021/12/01 10:58:56;;;;;;;2.50;1.03;;;8.10;1.00;;;;;;5011076;28;20525;-67
2021/12/01 11:01:26;;;;;;;0.50;0.10;;;8.10;1.00;;;;;;4989659;28;20543;-66
2021/12/01 11:03:56;;;;;;;0.90;0.10;;;8.10;1.00;;;;;;4997451;28;20489;-66
2021/12/01 11:06:25;;;;;;;0.70;0.20;;;8.20;1.00;;;;;;5002192;28;21231;-65
2021/12/01 11:08:57;;;;;;;1.80;0.50;;;8.20;1.00;;;;;;5009490;28;20542;-66
2021/12/01 11:11:35;;;;;;;0.50;0.10;;;8.20;1.00;;;;;;5009975;28;21055;-65
2021/12/01 11:14:23;;;;;;;0.50;0.10;;;8.20;1.00;;;;;;5010196;28;20451;-65
2021/12/01 11:16:51;;;;;;;0.50;0.10;;;8.20;1.00;;;;;;4992470;28;20476;-66
2021/12/01 11:19:32;;;;;;;0.50;0.10;;;8.30;1.00;;;;;;4990928;28;20849;-65
2021/12/01 11:22:31;;;;;;;0.50;0.10;;;8.30;1.00;;;;;;5001455;28;20471;-66
2021/12/01 11:25:18;;;;;;;0.50;0.23;;;8.30;1.00;;;;;;5003054;28;20570;-67
2021/12/01 11:27:46;;;;;;;0.70;0.60;;;8.30;1.00;;;;;;5005755;28;21025;-66
2021/12/01 11:30:14;;;;;;;0.50;0.10;;;8.30;1.00;;;;;;4994641;28;20456;-66
2021/12/01 11:32:50;;;;;;;0.50;0.10;;;8.30;1.00;;;;;;5002448;28;20448;-66
2021/12/01 11:35:20;;;;;;;0.50;0.10;;;8.40;1.00;;;;;;4997644;28;20464;-66
2021/12/01 11:37:54;;;;;;;0.50;0.10;;;8.40;1.00;;;;;;5006961;28;20482;-66
2021/12/01 11:40:23;;;;;;;0.50;0.10;;;8.40;1.00;;;;;;5010671;28;20496;-67
2021/12/01 11:42:55;;;;;;;0.50;0.10;;;8.40;1.00;;;;;;4996245;28;20455;-67
2021/12/01 11:45:23;;;;;;;0.50;0.10;;;8.40;1.00;;;;;;4992762;28;20472;-66
2021/12/01 11:47:53;;;;;;;0.50;0.10;;;8.50;1.00;;;;;;4996721;28;20447;-66
2021/12/01 11:50:32;;;;;;;0.60;0.30;;;8.60;1.00;;;;;;4986839;28;20467;-67
2021/12/01 11:53:11;;;;;;;0.63;0.10;;;8.60;1.00;;;;;;4985447;28;20462;-66
2021/12/01 11:55:53;;;;;;;0.50;0.10;;;8.60;1.00;;;;;;4992620;28;20807;-67
2021/12/01 11:59:00;;;;;;;0.50;0.10;;;8.70;1.00;;;;;;4993483;28;20984;-66
2021/12/01 12:01:49;;;;;;;2.80;0.30;;;8.80;1.00;;;;;;4988729;28;20500;-67
2021/12/01 12:04:39;;;;;;;0.53;0.20;;;8.80;1.00;;;;;;4992867;28;20542;-65
2021/12/01 12:07:10;;;;;;;0.80;0.30;;;8.80;1.00;;;;;;4990486;28;20441;-65
2021/12/01 12:10:14;;;;;;;0.50;0.10;;;8.90;1.00;;;;;;4992847;28;20444;-65
2021/12/01 12:12:57;;;;;;;0.60;0.20;;;9.00;1.00;;;;;;4993000;28;20486;-65
2021/12/01 12:15:37;;;;;;;0.50;0.10;;;8.90;1.00;;;;;;4995317;28;20487;-66
2021/12/01 12:18:05;;;;;;;0.53;0.10;;;9.00;1.00;;;;;;5004510;28;20503;-66
2021/12/01 12:20:39;;;;;;;0.50;0.10;;;9.10;1.00;;;;;;5007963;28;20791;-67
2021/12/01 12:23:10;;;;;;;0.60;0.10;;;9.10;1.00;;;;;;5012529;28;20493;-66
2021/12/01 12:25:52;;;;;;;0.60;0.30;;;9.20;1.00;;;;;;5006266;28;20492;-67
2021/12/01 12:28:35;;;;;;;0.60;0.10;;;9.20;1.00;;;;;;5001235;28;20867;-67
2021/12/01 12:31:06;;;;;;;0.50;0.10;;;9.20;1.00;;;;;;4998619;28;20475;-66
2021/12/01 12:33:38;;;;;;;0.60;0.10;;;9.20;1.00;;;;;;4994350;28;20958;-68
2021/12/01 12:36:08;;;;;;;0.50;0.10;;;9.20;1.00;;;;;;4996658;28;20455;-66
2021/12/01 12:38:37;;;;;;;0.60;0.10;;;9.20;1.00;;;;;;5004436;28;20575;-67
2021/12/01 12:41:11;;;;;;;2.87;0.20;;;9.20;1.00;;;;;;5005790;28;20464;-66
2021/12/01 12:43:41;;;;;;;0.57;0.20;;;9.20;1.00;;;;;;4992434;28;20467;-67
2021/12/01 12:46:12;;;;;;;0.60;0.20;;;9.20;1.00;;;;;;4993260;28;20445;-66
2021/12/01 12:48:42;;;;;;;0.60;0.20;;;9.30;1.00;;;;;;5001811;28;20545;-67
2021/12/01 12:51:17;;;;;;;0.50;0.10;;;9.30;1.00;;;;;;4979870;28;20475;-68
2021/12/01 12:54:15;;;;;;;0.50;0.10;;;9.30;1.00;;;;;;4993664;28;20447;-67
2021/12/01 12:56:50;;;;;;;0.50;0.10;;;9.30;1.00;;;;;;4998977;28;20450;-66
2021/12/01 12:59:36;;;;;;;0.50;0.10;;;9.20;1.00;;;;;;4973407;28;20989;-66
2021/12/01 13:02:32;;;;;;;0.50;0.10;;;9.30;1.00;;;;;;4973844;28;20461;-67
2021/12/01 13:05:05;;;;;;;0.50;0.20;;;9.30;1.00;;;;;;4973636;28;20952;-67
2021/12/01 13:07:39;;;;;;;0.50;0.10;;;9.20;1.00;;;;;;4983922;28;20528;-68
2021/12/01 13:10:12;;;;;;;0.53;0.17;;;9.20;1.00;;;;;;4992784;28;20567;-67
2021/12/01 13:13:00;;;;;;;0.53;0.20;;;9.20;1.00;;;;;;4988798;28;20478;-67
2021/12/01 13:15:34;;;;;;;0.50;0.10;;;9.20;1.00;;;;;;4973741;28;20450;-67
2021/12/01 13:18:05;;;;;;;0.60;0.30;;;9.30;1.00;;;;;;4973471;28;20484;-67
2021/12/01 13:20:35;;;;;;;0.60;0.10;;;9.30;1.00;;;;;;4973620;28;20513;-66
2021/12/01 13:23:22;;;;;;;0.60;0.10;;;9.30;1.00;;;;;;4973994;28;20468;-67
2021/12/01 13:25:58;;;;;;;0.50;0.10;;;9.30;1.00;;;;;;4984506;28;20443;-67
2021/12/01 13:28:38;;;;;;;0.70;0.20;;;9.30;1.00;;;;;;4993268;28;20440;-67
2021/12/01 13:31:08;;;;;;;0.50;0.20;;;9.30;1.00;;;;;;4993451;28;20552;-67
2021/12/01 13:33:51;;;;;;;0.50;0.10;;;9.30;1.00;;;;;;4993014;28;20892;-67